sensor_id;sensor_type;location;lat;lon;timestamp;P1;durP1;ratioP1;P2;durP2;ratioP2
54935;SDS011;40838;50.676;7.838;2023-04-06T00:00:03;6.57;;;4.10;;
54935;SDS011;40838;50.676;7.838;2023-04-06T00:02:36;10.02;;;3.92;;
54935;SDS011;40838;50.676;7.838;2023-04-06T00:05:03;9.80;;;4.55;;
54935;SDS011;40838;50.676;7.838;2023-04-06T00:07:30;8.85;;;4.30;;
54935;SDS011;40838;50.676;7.838;2023-04-06T00:09:58;9.00;;;4.78;;
54935;SDS011;40838;50.676;7.838;2023-04-06T00:12:25;6.10;;;3.88;;
54935;SDS011;40838;50.676;7.838;2023-04-06T00:14:52;10.27;;;4.53;;
54935;SDS011;40838;50.676;7.838;2023-04-06T00:17:19;11.60;;;4.53;;
54935;SDS011;40838;50.676;7.838;2023-04-06T00:19:48;6.32;;;4.05;;
54935;SDS011;40838;50.676;7.838;2023-04-06T00:22:14;8.70;;;4.70;;
54935;SDS011;40838;50.676;7.838;2023-04-06T00:24:43;8.40;;;4.25;;
54935;SDS011;40838;50.676;7.838;2023-04-06T00:27:10;9.32;;;4.80;;
54935;SDS011;40838;50.676;7.838;2023-04-06T00:29:37;7.57;;;4.07;;
54935;SDS011;40838;50.676;7.838;2023-04-06T00:32:06;8.68;;;4.40;;
54935;SDS011;40838;50.676;7.838;2023-04-06T00:34:32;7.45;;;4.68;;
54935;SDS011;40838;50.676;7.838;2023-04-06T00:37:01;10.23;;;4.90;;
54935;SDS011;40838;50.676;7.838;2023-04-06T00:39:27;10.23;;;4.43;;
54935;SDS011;40838;50.676;7.838;2023-04-06T00:41:54;9.80;;;3.97;;
54935;SDS011;40838;50.676;7.838;2023-04-06T00:44:22;13.52;;;5.18;;
54935;SDS011;40838;50.676;7.838;2023-04-06T00:46:49;7.32;;;4.65;;
54935;SDS011;40838;50.676;7.838;2023-04-06T00:49:16;11.52;;;4.40;;
54935;SDS011;40838;50.676;7.838;2023-04-06T00:51:43;7.78;;;4.25;;
54935;SDS011;40838;50.676;7.838;2023-04-06T00:54:11;5.80;;;3.63;;
54935;SDS011;40838;50.676;7.838;2023-04-06T00:56:38;7.40;;;4.78;;
54935;SDS011;40838;50.676;7.838;2023-04-06T00:59:05;10.88;;;5.18;;
54935;SDS011;40838;50.676;7.838;2023-04-06T01:04:16;9.35;;;3.95;;
54935;SDS011;40838;50.676;7.838;2023-04-06T01:06:43;7.45;;;4.50;;
54935;SDS011;40838;50.676;7.838;2023-04-06T01:09:12;11.35;;;5.38;;
54935;SDS011;40838;50.676;7.838;2023-04-06T01:11:39;6.70;;;4.32;;
54935;SDS011;40838;50.676;7.838;2023-04-06T01:14:09;7.72;;;4.60;;
54935;SDS011;40838;50.676;7.838;2023-04-06T01:16:57;7.53;;;3.97;;
54935;SDS011;40838;50.676;7.838;2023-04-06T01:19:27;6.40;;;3.78;;
54935;SDS011;40838;50.676;7.838;2023-04-06T01:21:55;7.60;;;4.53;;
54935;SDS011;40838;50.676;7.838;2023-04-06T01:24:49;8.10;;;4.30;;
54935;SDS011;40838;50.676;7.838;2023-04-06T01:27:22;7.18;;;4.30;;
54935;SDS011;40838;50.676;7.838;2023-04-06T01:30:09;9.55;;;4.43;;
54935;SDS011;40838;50.676;7.838;2023-04-06T01:32:42;10.02;;;4.43;;
54935;SDS011;40838;50.676;7.838;2023-04-06T01:35:12;8.50;;;4.30;;
54935;SDS011;40838;50.676;7.838;2023-04-06T01:37:48;8.20;;;3.85;;
54935;SDS011;40838;50.676;7.838;2023-04-06T01:42:51;6.15;;;3.80;;
54935;SDS011;40838;50.676;7.838;2023-04-06T01:45:26;10.05;;;4.25;;
54935;SDS011;40838;50.676;7.838;2023-04-06T01:47:59;7.05;;;4.18;;
54935;SDS011;40838;50.676;7.838;2023-04-06T01:50:27;6.75;;;4.35;;
54935;SDS011;40838;50.676;7.838;2023-04-06T01:52:54;7.95;;;4.18;;
54935;SDS011;40838;50.676;7.838;2023-04-06T01:55:24;6.90;;;4.05;;
54935;SDS011;40838;50.676;7.838;2023-04-06T01:58:29;12.20;;;4.10;;
54935;SDS011;40838;50.676;7.838;2023-04-06T02:00:57;8.70;;;4.15;;
54935;SDS011;40838;50.676;7.838;2023-04-06T02:03:26;6.10;;;4.00;;
54935;SDS011;40838;50.676;7.838;2023-04-06T02:06:02;7.68;;;3.92;;
54935;SDS011;40838;50.676;7.838;2023-04-06T02:08:35;6.78;;;4.15;;
54935;SDS011;40838;50.676;7.838;2023-04-06T02:11:03;7.25;;;3.90;;
54935;SDS011;40838;50.676;7.838;2023-04-06T02:13:37;7.30;;;4.53;;
54935;SDS011;40838;50.676;7.838;2023-04-06T02:16:05;6.72;;;4.32;;
54935;SDS011;40838;50.676;7.838;2023-04-06T02:18:32;10.15;;;4.53;;
54935;SDS011;40838;50.676;7.838;2023-04-06T02:20:58;7.82;;;4.32;;
54935;SDS011;40838;50.676;7.838;2023-04-06T02:23:25;7.35;;;3.75;;
54935;SDS011;40838;50.676;7.838;2023-04-06T02:25:52;6.03;;;3.28;;
54935;SDS011;40838;50.676;7.838;2023-04-06T02:28:21;8.43;;;3.95;;
54935;SDS011;40838;50.676;7.838;2023-04-06T02:30:47;8.20;;;3.85;;
54935;SDS011;40838;50.676;7.838;2023-04-06T02:33:15;6.35;;;3.92;;
54935;SDS011;40838;50.676;7.838;2023-04-06T02:35:47;10.80;;;4.03;;
54935;SDS011;40838;50.676;7.838;2023-04-06T02:38:14;6.63;;;3.63;;
54935;SDS011;40838;50.676;7.838;2023-04-06T02:40:43;6.68;;;3.80;;
54935;SDS011;40838;50.676;7.838;2023-04-06T02:43:24;6.38;;;3.83;;
54935;SDS011;40838;50.676;7.838;2023-04-06T02:45:58;5.85;;;4.07;;
54935;SDS011;40838;50.676;7.838;2023-04-06T02:48:25;7.85;;;4.60;;
54935;SDS011;40838;50.676;7.838;2023-04-06T02:50:52;8.38;;;3.88;;
54935;SDS011;40838;50.676;7.838;2023-04-06T02:53:19;10.38;;;4.05;;
54935;SDS011;40838;50.676;7.838;2023-04-06T02:55:46;9.32;;;4.40;;
54935;SDS011;40838;50.676;7.838;2023-04-06T02:58:13;7.68;;;4.10;;
54935;SDS011;40838;50.676;7.838;2023-04-06T03:00:49;7.47;;;3.95;;
54935;SDS011;40838;50.676;7.838;2023-04-06T03:03:15;6.50;;;3.60;;
54935;SDS011;40838;50.676;7.838;2023-04-06T03:05:43;8.68;;;4.57;;
54935;SDS011;40838;50.676;7.838;2023-04-06T03:08:12;8.63;;;4.00;;
54935;SDS011;40838;50.676;7.838;2023-04-06T03:10:44;6.75;;;3.80;;
54935;SDS011;40838;50.676;7.838;2023-04-06T03:13:11;7.63;;;3.80;;
54935;SDS011;40838;50.676;7.838;2023-04-06T03:15:45;6.97;;;3.53;;
54935;SDS011;40838;50.676;7.838;2023-04-06T03:18:17;8.80;;;4.05;;
54935;SDS011;40838;50.676;7.838;2023-04-06T03:20:47;6.72;;;3.63;;
54935;SDS011;40838;50.676;7.838;2023-04-06T03:23:16;5.40;;;3.08;;
54935;SDS011;40838;50.676;7.838;2023-04-06T03:25:48;9.65;;;4.47;;
54935;SDS011;40838;50.676;7.838;2023-04-06T03:28:18;7.45;;;4.57;;
54935;SDS011;40838;50.676;7.838;2023-04-06T03:31:05;13.30;;;4.20;;
54935;SDS011;40838;50.676;7.838;2023-04-06T03:33:55;6.75;;;3.72;;
54935;SDS011;40838;50.676;7.838;2023-04-06T03:36:32;6.38;;;3.42;;
54935;SDS011;40838;50.676;7.838;2023-04-06T03:39:02;5.53;;;3.70;;
54935;SDS011;40838;50.676;7.838;2023-04-06T03:41:33;10.55;;;3.70;;
54935;SDS011;40838;50.676;7.838;2023-04-06T03:44:06;7.88;;;4.50;;
54935;SDS011;40838;50.676;7.838;2023-04-06T03:46:33;10.90;;;3.63;;
54935;SDS011;40838;50.676;7.838;2023-04-06T03:49:01;6.00;;;3.53;;
54935;SDS011;40838;50.676;7.838;2023-04-06T03:51:28;5.10;;;3.40;;
54935;SDS011;40838;50.676;7.838;2023-04-06T03:53:55;9.32;;;4.00;;
54935;SDS011;40838;50.676;7.838;2023-04-06T03:56:22;7.72;;;4.15;;
54935;SDS011;40838;50.676;7.838;2023-04-06T03:58:49;7.20;;;3.70;;
54935;SDS011;40838;50.676;7.838;2023-04-06T04:01:16;4.63;;;3.20;;
54935;SDS011;40838;50.676;7.838;2023-04-06T04:03:43;6.97;;;3.65;;
54935;SDS011;40838;50.676;7.838;2023-04-06T04:06:14;5.18;;;3.53;;
54935;SDS011;40838;50.676;7.838;2023-04-06T04:08:41;8.07;;;3.72;;
54935;SDS011;40838;50.676;7.838;2023-04-06T04:11:08;12.57;;;4.15;;
54935;SDS011;40838;50.676;7.838;2023-04-06T04:13:35;6.57;;;4.00;;
54935;SDS011;40838;50.676;7.838;2023-04-06T04:16:04;5.90;;;3.35;;
54935;SDS011;40838;50.676;7.838;2023-04-06T04:18:31;5.85;;;3.63;;
54935;SDS011;40838;50.676;7.838;2023-04-06T04:20:58;9.85;;;3.97;;
54935;SDS011;40838;50.676;7.838;2023-04-06T04:23:26;6.45;;;3.67;;
54935;SDS011;40838;50.676;7.838;2023-04-06T04:25:53;7.05;;;3.67;;
54935;SDS011;40838;50.676;7.838;2023-04-06T04:28:20;9.02;;;4.40;;
54935;SDS011;40838;50.676;7.838;2023-04-06T04:30:47;5.80;;;3.47;;
54935;SDS011;40838;50.676;7.838;2023-04-06T04:33:14;7.43;;;3.38;;
54935;SDS011;40838;50.676;7.838;2023-04-06T04:35:42;6.50;;;4.03;;
54935;SDS011;40838;50.676;7.838;2023-04-06T04:38:12;7.72;;;4.45;;
54935;SDS011;40838;50.676;7.838;2023-04-06T04:40:43;12.38;;;5.57;;
54935;SDS011;40838;50.676;7.838;2023-04-06T04:43:11;9.00;;;4.28;;
54935;SDS011;40838;50.676;7.838;2023-04-06T04:45:38;7.72;;;3.75;;
54935;SDS011;40838;50.676;7.838;2023-04-06T04:48:15;10.52;;;4.30;;
54935;SDS011;40838;50.676;7.838;2023-04-06T04:50:58;13.50;;;4.03;;
54935;SDS011;40838;50.676;7.838;2023-04-06T04:53:31;7.35;;;4.15;;
54935;SDS011;40838;50.676;7.838;2023-04-06T04:56:08;6.40;;;3.75;;
54935;SDS011;40838;50.676;7.838;2023-04-06T04:58:35;9.55;;;4.82;;
54935;SDS011;40838;50.676;7.838;2023-04-06T05:01:02;7.25;;;4.03;;
54935;SDS011;40838;50.676;7.838;2023-04-06T05:03:29;7.05;;;4.13;;
54935;SDS011;40838;50.676;7.838;2023-04-06T05:06:00;6.25;;;3.90;;
54935;SDS011;40838;50.676;7.838;2023-04-06T05:08:31;5.68;;;4.07;;
54935;SDS011;40838;50.676;7.838;2023-04-06T05:10:59;6.53;;;4.07;;
54935;SDS011;40838;50.676;7.838;2023-04-06T05:13:31;9.18;;;4.05;;
54935;SDS011;40838;50.676;7.838;2023-04-06T05:16:03;7.78;;;3.83;;
54935;SDS011;40838;50.676;7.838;2023-04-06T05:18:32;10.02;;;4.18;;
54935;SDS011;40838;50.676;7.838;2023-04-06T05:21:02;6.50;;;3.58;;
54935;SDS011;40838;50.676;7.838;2023-04-06T05:23:38;6.55;;;4.25;;
54935;SDS011;40838;50.676;7.838;2023-04-06T05:26:05;9.48;;;4.05;;
54935;SDS011;40838;50.676;7.838;2023-04-06T05:28:33;12.90;;;4.75;;
54935;SDS011;40838;50.676;7.838;2023-04-06T05:31:02;7.20;;;3.88;;
54935;SDS011;40838;50.676;7.838;2023-04-06T05:33:37;9.90;;;4.05;;
54935;SDS011;40838;50.676;7.838;2023-04-06T05:36:08;6.80;;;4.10;;
54935;SDS011;40838;50.676;7.838;2023-04-06T05:38:39;7.90;;;4.03;;
54935;SDS011;40838;50.676;7.838;2023-04-06T05:41:22;7.00;;;4.18;;
54935;SDS011;40838;50.676;7.838;2023-04-06T05:43:51;6.22;;;3.85;;
54935;SDS011;40838;50.676;7.838;2023-04-06T05:46:18;5.70;;;4.03;;
54935;SDS011;40838;50.676;7.838;2023-04-06T05:48:45;6.43;;;3.95;;
54935;SDS011;40838;50.676;7.838;2023-04-06T05:51:12;7.43;;;3.88;;
54935;SDS011;40838;50.676;7.838;2023-04-06T05:53:47;7.13;;;4.13;;
54935;SDS011;40838;50.676;7.838;2023-04-06T05:56:14;6.10;;;3.85;;
54935;SDS011;40838;50.676;7.838;2023-04-06T05:58:42;8.05;;;4.30;;
54935;SDS011;40838;50.676;7.838;2023-04-06T06:01:13;8.00;;;4.15;;
54935;SDS011;40838;50.676;7.838;2023-04-06T06:03:44;6.82;;;4.15;;
54935;SDS011;40838;50.676;7.838;2023-04-06T06:06:12;8.13;;;4.68;;
54935;SDS011;40838;50.676;7.838;2023-04-06T06:08:59;9.13;;;4.45;;
54935;SDS011;40838;50.676;7.838;2023-04-06T06:11:27;6.38;;;4.35;;
54935;SDS011;40838;50.676;7.838;2023-04-06T06:13:55;8.63;;;4.25;;
54935;SDS011;40838;50.676;7.838;2023-04-06T06:16:25;9.13;;;4.70;;
54935;SDS011;40838;50.676;7.838;2023-04-06T06:18:52;8.57;;;4.40;;
54935;SDS011;40838;50.676;7.838;2023-04-06T06:21:19;7.72;;;4.68;;
54935;SDS011;40838;50.676;7.838;2023-04-06T06:23:45;7.55;;;4.80;;
54935;SDS011;40838;50.676;7.838;2023-04-06T06:26:17;6.18;;;4.60;;
54935;SDS011;40838;50.676;7.838;2023-04-06T06:28:44;6.57;;;4.47;;
54935;SDS011;40838;50.676;7.838;2023-04-06T06:31:12;6.80;;;4.53;;
54935;SDS011;40838;50.676;7.838;2023-04-06T06:33:41;9.88;;;4.78;;
54935;SDS011;40838;50.676;7.838;2023-04-06T06:36:08;9.57;;;4.72;;
54935;SDS011;40838;50.676;7.838;2023-04-06T06:38:36;6.13;;;4.22;;
54935;SDS011;40838;50.676;7.838;2023-04-06T06:41:04;11.55;;;4.60;;
54935;SDS011;40838;50.676;7.838;2023-04-06T06:43:33;6.57;;;4.55;;
54935;SDS011;40838;50.676;7.838;2023-04-06T06:46:05;9.85;;;4.78;;
54935;SDS011;40838;50.676;7.838;2023-04-06T06:48:32;7.60;;;4.63;;
54935;SDS011;40838;50.676;7.838;2023-04-06T06:51:01;7.40;;;4.90;;
54935;SDS011;40838;50.676;7.838;2023-04-06T06:53:28;11.32;;;4.88;;
54935;SDS011;40838;50.676;7.838;2023-04-06T06:55:55;7.65;;;4.40;;
54935;SDS011;40838;50.676;7.838;2023-04-06T06:58:22;8.85;;;5.15;;
54935;SDS011;40838;50.676;7.838;2023-04-06T07:00:49;6.22;;;4.78;;
54935;SDS011;40838;50.676;7.838;2023-04-06T07:03:16;7.47;;;4.60;;
54935;SDS011;40838;50.676;7.838;2023-04-06T07:05:46;12.38;;;5.47;;
54935;SDS011;40838;50.676;7.838;2023-04-06T07:08:19;6.72;;;4.40;;
54935;SDS011;40838;50.676;7.838;2023-04-06T07:10:47;6.93;;;4.60;;
54935;SDS011;40838;50.676;7.838;2023-04-06T07:13:14;10.15;;;5.25;;
54935;SDS011;40838;50.676;7.838;2023-04-06T07:15:44;9.73;;;5.32;;
54935;SDS011;40838;50.676;7.838;2023-04-06T07:18:11;10.60;;;5.70;;
54935;SDS011;40838;50.676;7.838;2023-04-06T07:20:38;8.95;;;5.65;;
54935;SDS011;40838;50.676;7.838;2023-04-06T07:23:06;9.50;;;5.20;;
54935;SDS011;40838;50.676;7.838;2023-04-06T07:25:34;10.63;;;5.32;;
54935;SDS011;40838;50.676;7.838;2023-04-06T07:28:01;9.63;;;4.85;;
54935;SDS011;40838;50.676;7.838;2023-04-06T07:30:28;10.38;;;5.22;;
54935;SDS011;40838;50.676;7.838;2023-04-06T07:32:55;8.68;;;4.95;;
54935;SDS011;40838;50.676;7.838;2023-04-06T07:35:24;8.70;;;4.60;;
54935;SDS011;40838;50.676;7.838;2023-04-06T07:37:53;9.13;;;5.78;;
54935;SDS011;40838;50.676;7.838;2023-04-06T07:40:20;10.30;;;5.75;;
54935;SDS011;40838;50.676;7.838;2023-04-06T07:42:50;11.70;;;6.20;;
54935;SDS011;40838;50.676;7.838;2023-04-06T07:45:17;13.55;;;5.57;;
54935;SDS011;40838;50.676;7.838;2023-04-06T07:47:44;9.52;;;5.65;;
54935;SDS011;40838;50.676;7.838;2023-04-06T07:50:12;11.30;;;6.45;;
54935;SDS011;40838;50.676;7.838;2023-04-06T07:52:39;11.93;;;6.10;;
54935;SDS011;40838;50.676;7.838;2023-04-06T07:55:07;9.65;;;5.50;;
54935;SDS011;40838;50.676;7.838;2023-04-06T07:57:34;9.75;;;5.78;;
54935;SDS011;40838;50.676;7.838;2023-04-06T08:00:03;13.07;;;6.25;;
54935;SDS011;40838;50.676;7.838;2023-04-06T08:02:37;9.48;;;6.10;;
54935;SDS011;40838;50.676;7.838;2023-04-06T08:05:04;10.20;;;5.80;;
54935;SDS011;40838;50.676;7.838;2023-04-06T08:07:32;12.32;;;7.07;;
54935;SDS011;40838;50.676;7.838;2023-04-06T08:09:59;14.70;;;7.22;;
54935;SDS011;40838;50.676;7.838;2023-04-06T08:12:26;15.00;;;7.63;;
54935;SDS011;40838;50.676;7.838;2023-04-06T08:14:52;13.25;;;7.03;;
54935;SDS011;40838;50.676;7.838;2023-04-06T08:17:21;12.55;;;6.30;;
54935;SDS011;40838;50.676;7.838;2023-04-06T08:19:47;12.32;;;6.78;;
54935;SDS011;40838;50.676;7.838;2023-04-06T08:22:14;13.93;;;7.05;;
54935;SDS011;40838;50.676;7.838;2023-04-06T08:24:41;15.07;;;7.03;;
54935;SDS011;40838;50.676;7.838;2023-04-06T08:27:08;10.65;;;6.35;;
54935;SDS011;40838;50.676;7.838;2023-04-06T08:29:35;11.55;;;6.93;;
54935;SDS011;40838;50.676;7.838;2023-04-06T08:32:02;9.43;;;5.90;;
54935;SDS011;40838;50.676;7.838;2023-04-06T08:34:32;15.98;;;6.40;;
54935;SDS011;40838;50.676;7.838;2023-04-06T08:36:59;10.27;;;6.55;;
54935;SDS011;40838;50.676;7.838;2023-04-06T08:39:27;14.02;;;6.28;;
54935;SDS011;40838;50.676;7.838;2023-04-06T08:41:55;10.13;;;6.88;;
54935;SDS011;40838;50.676;7.838;2023-04-06T08:44:25;12.60;;;7.05;;
54935;SDS011;40838;50.676;7.838;2023-04-06T08:46:52;13.35;;;6.78;;
54935;SDS011;40838;50.676;7.838;2023-04-06T08:49:19;11.02;;;6.38;;
54935;SDS011;40838;50.676;7.838;2023-04-06T08:51:49;14.38;;;8.02;;
54935;SDS011;40838;50.676;7.838;2023-04-06T08:54:15;10.88;;;6.63;;
54935;SDS011;40838;50.676;7.838;2023-04-06T08:56:42;13.70;;;7.32;;
54935;SDS011;40838;50.676;7.838;2023-04-06T08:59:10;13.68;;;7.65;;
54935;SDS011;40838;50.676;7.838;2023-04-06T09:01:38;14.30;;;7.35;;
54935;SDS011;40838;50.676;7.838;2023-04-06T09:04:07;13.13;;;6.93;;
54935;SDS011;40838;50.676;7.838;2023-04-06T09:06:36;11.55;;;7.78;;
54935;SDS011;40838;50.676;7.838;2023-04-06T09:09:04;13.02;;;7.32;;
54935;SDS011;40838;50.676;7.838;2023-04-06T09:11:41;13.88;;;6.93;;
54935;SDS011;40838;50.676;7.838;2023-04-06T09:14:08;14.18;;;7.20;;
54935;SDS011;40838;50.676;7.838;2023-04-06T09:16:39;19.42;;;7.90;;
54935;SDS011;40838;50.676;7.838;2023-04-06T09:19:07;12.73;;;7.03;;
54935;SDS011;40838;50.676;7.838;2023-04-06T09:21:35;18.70;;;7.63;;
54935;SDS011;40838;50.676;7.838;2023-04-06T09:24:02;15.07;;;7.13;;
54935;SDS011;40838;50.676;7.838;2023-04-06T09:26:31;15.32;;;7.90;;
54935;SDS011;40838;50.676;7.838;2023-04-06T09:29:10;13.93;;;7.50;;
54935;SDS011;40838;50.676;7.838;2023-04-06T09:31:49;15.75;;;7.78;;
54935;SDS011;40838;50.676;7.838;2023-04-06T09:34:20;16.45;;;8.65;;
54935;SDS011;40838;50.676;7.838;2023-04-06T09:36:48;12.68;;;7.07;;
54935;SDS011;40838;50.676;7.838;2023-04-06T09:39:19;15.80;;;8.25;;
54935;SDS011;40838;50.676;7.838;2023-04-06T09:41:50;14.52;;;7.55;;
54935;SDS011;40838;50.676;7.838;2023-04-06T09:44:17;16.75;;;8.07;;
54935;SDS011;40838;50.676;7.838;2023-04-06T09:46:45;15.27;;;7.18;;
54935;SDS011;40838;50.676;7.838;2023-04-06T09:49:13;16.38;;;7.95;;
54935;SDS011;40838;50.676;7.838;2023-04-06T09:51:41;17.55;;;8.52;;
54935;SDS011;40838;50.676;7.838;2023-04-06T09:54:14;15.57;;;7.68;;
54935;SDS011;40838;50.676;7.838;2023-04-06T09:56:45;16.40;;;7.70;;
54935;SDS011;40838;50.676;7.838;2023-04-06T09:59:17;17.55;;;8.45;;
54935;SDS011;40838;50.676;7.838;2023-04-06T10:01:49;18.00;;;8.30;;
54935;SDS011;40838;50.676;7.838;2023-04-06T10:04:21;14.32;;;7.45;;
54935;SDS011;40838;50.676;7.838;2023-04-06T10:06:56;16.23;;;8.05;;
54935;SDS011;40838;50.676;7.838;2023-04-06T10:09:25;15.90;;;8.13;;
54935;SDS011;40838;50.676;7.838;2023-04-06T10:12:01;20.00;;;8.60;;
54935;SDS011;40838;50.676;7.838;2023-04-06T10:14:30;14.75;;;7.07;;
54935;SDS011;40838;50.676;7.838;2023-04-06T10:16:59;13.43;;;7.10;;
54935;SDS011;40838;50.676;7.838;2023-04-06T10:19:29;17.08;;;7.30;;
54935;SDS011;40838;50.676;7.838;2023-04-06T10:22:03;13.32;;;7.53;;
54935;SDS011;40838;50.676;7.838;2023-04-06T10:24:34;14.27;;;7.57;;
54935;SDS011;40838;50.676;7.838;2023-04-06T10:27:02;17.48;;;8.23;;
54935;SDS011;40838;50.676;7.838;2023-04-06T10:29:41;14.43;;;7.32;;
54935;SDS011;40838;50.676;7.838;2023-04-06T10:32:10;16.30;;;7.82;;
54935;SDS011;40838;50.676;7.838;2023-04-06T10:34:37;12.18;;;7.07;;
54935;SDS011;40838;50.676;7.838;2023-04-06T10:37:13;17.98;;;7.85;;
54935;SDS011;40838;50.676;7.838;2023-04-06T10:39:47;13.77;;;7.53;;
54935;SDS011;40838;50.676;7.838;2023-04-06T10:42:14;16.90;;;7.40;;
54935;SDS011;40838;50.676;7.838;2023-04-06T10:44:45;15.60;;;8.23;;
54935;SDS011;40838;50.676;7.838;2023-04-06T10:47:16;13.35;;;7.13;;
54935;SDS011;40838;50.676;7.838;2023-04-06T10:49:44;16.92;;;7.80;;
54935;SDS011;40838;50.676;7.838;2023-04-06T10:52:11;16.65;;;8.63;;
54935;SDS011;40838;50.676;7.838;2023-04-06T10:54:41;18.30;;;7.38;;
54935;SDS011;40838;50.676;7.838;2023-04-06T10:57:09;16.83;;;8.40;;
54935;SDS011;40838;50.676;7.838;2023-04-06T10:59:36;17.50;;;7.95;;
54935;SDS011;40838;50.676;7.838;2023-04-06T11:02:04;14.30;;;8.27;;
54935;SDS011;40838;50.676;7.838;2023-04-06T11:04:31;15.55;;;8.45;;
54935;SDS011;40838;50.676;7.838;2023-04-06T11:06:58;20.30;;;9.05;;
54935;SDS011;40838;50.676;7.838;2023-04-06T11:09:25;13.55;;;7.75;;
54935;SDS011;40838;50.676;7.838;2023-04-06T11:11:53;17.92;;;9.02;;
54935;SDS011;40838;50.676;7.838;2023-04-06T11:14:20;16.88;;;8.43;;
54935;SDS011;40838;50.676;7.838;2023-04-06T11:16:47;20.88;;;10.32;;
54935;SDS011;40838;50.676;7.838;2023-04-06T11:19:17;17.85;;;9.07;;
54935;SDS011;40838;50.676;7.838;2023-04-06T11:21:44;17.83;;;8.68;;
54935;SDS011;40838;50.676;7.838;2023-04-06T11:24:13;15.48;;;8.57;;
54935;SDS011;40838;50.676;7.838;2023-04-06T11:26:42;15.98;;;8.80;;
54935;SDS011;40838;50.676;7.838;2023-04-06T11:29:11;15.52;;;7.70;;
54935;SDS011;40838;50.676;7.838;2023-04-06T11:31:39;17.42;;;7.90;;
54935;SDS011;40838;50.676;7.838;2023-04-06T11:34:13;14.48;;;8.60;;
54935;SDS011;40838;50.676;7.838;2023-04-06T11:36:44;19.42;;;9.15;;
54935;SDS011;40838;50.676;7.838;2023-04-06T11:39:17;16.58;;;8.75;;
54935;SDS011;40838;50.676;7.838;2023-04-06T11:41:47;22.20;;;9.93;;
54935;SDS011;40838;50.676;7.838;2023-04-06T11:44:14;24.17;;;10.02;;
54935;SDS011;40838;50.676;7.838;2023-04-06T11:46:41;12.45;;;7.68;;
54935;SDS011;40838;50.676;7.838;2023-04-06T11:49:17;18.77;;;8.00;;
54935;SDS011;40838;50.676;7.838;2023-04-06T11:51:45;14.75;;;8.23;;
54935;SDS011;40838;50.676;7.838;2023-04-06T11:54:12;17.38;;;8.85;;
54935;SDS011;40838;50.676;7.838;2023-04-06T11:56:39;15.20;;;8.68;;
54935;SDS011;40838;50.676;7.838;2023-04-06T11:59:06;14.38;;;8.43;;
54935;SDS011;40838;50.676;7.838;2023-04-06T12:01:33;15.00;;;8.60;;
54935;SDS011;40838;50.676;7.838;2023-04-06T12:04:00;15.10;;;8.15;;
54935;SDS011;40838;50.676;7.838;2023-04-06T12:06:27;14.98;;;8.13;;
54935;SDS011;40838;50.676;7.838;2023-04-06T12:08:57;12.63;;;7.32;;
54935;SDS011;40838;50.676;7.838;2023-04-06T12:11:25;12.98;;;7.90;;
54935;SDS011;40838;50.676;7.838;2023-04-06T12:13:52;14.27;;;8.05;;
54935;SDS011;40838;50.676;7.838;2023-04-06T12:16:19;15.95;;;8.70;;
54935;SDS011;40838;50.676;7.838;2023-04-06T12:18:46;17.98;;;8.38;;
54935;SDS011;40838;50.676;7.838;2023-04-06T12:21:13;15.55;;;8.45;;
54935;SDS011;40838;50.676;7.838;2023-04-06T12:23:40;12.68;;;7.63;;
54935;SDS011;40838;50.676;7.838;2023-04-06T12:26:08;13.48;;;7.63;;
54935;SDS011;40838;50.676;7.838;2023-04-06T12:28:35;17.17;;;8.25;;
54935;SDS011;40838;50.676;7.838;2023-04-06T12:31:02;13.55;;;7.40;;
54935;SDS011;40838;50.676;7.838;2023-04-06T12:33:29;12.63;;;7.80;;
54935;SDS011;40838;50.676;7.838;2023-04-06T12:35:56;12.85;;;7.82;;
54935;SDS011;40838;50.676;7.838;2023-04-06T12:38:23;13.77;;;8.57;;
54935;SDS011;40838;50.676;7.838;2023-04-06T12:40:50;15.00;;;8.45;;
54935;SDS011;40838;50.676;7.838;2023-04-06T12:43:18;18.42;;;8.55;;
54935;SDS011;40838;50.676;7.838;2023-04-06T12:45:45;14.40;;;7.90;;
54935;SDS011;40838;50.676;7.838;2023-04-06T12:48:12;15.07;;;8.57;;
54935;SDS011;40838;50.676;7.838;2023-04-06T12:50:39;13.77;;;7.47;;
54935;SDS011;40838;50.676;7.838;2023-04-06T12:53:06;13.50;;;7.53;;
54935;SDS011;40838;50.676;7.838;2023-04-06T12:55:33;16.48;;;7.43;;
54935;SDS011;40838;50.676;7.838;2023-04-06T12:58:00;14.20;;;7.45;;
54935;SDS011;40838;50.676;7.838;2023-04-06T13:00:29;18.33;;;8.73;;
54935;SDS011;40838;50.676;7.838;2023-04-06T13:02:57;13.63;;;8.48;;
54935;SDS011;40838;50.676;7.838;2023-04-06T13:05:24;18.20;;;9.18;;
54935;SDS011;40838;50.676;7.838;2023-04-06T13:07:50;18.13;;;10.13;;
54935;SDS011;40838;50.676;7.838;2023-04-06T13:10:17;15.18;;;8.82;;
54935;SDS011;40838;50.676;7.838;2023-04-06T13:12:44;14.70;;;7.93;;
54935;SDS011;40838;50.676;7.838;2023-04-06T13:15:11;18.13;;;10.10;;
54935;SDS011;40838;50.676;7.838;2023-04-06T13:17:39;17.90;;;8.48;;
54935;SDS011;40838;50.676;7.838;2023-04-06T13:20:06;15.70;;;8.75;;
54935;SDS011;40838;50.676;7.838;2023-04-06T13:22:33;17.38;;;8.70;;
54935;SDS011;40838;50.676;7.838;2023-04-06T13:25:00;16.52;;;8.85;;
54935;SDS011;40838;50.676;7.838;2023-04-06T13:27:27;15.25;;;9.10;;
54935;SDS011;40838;50.676;7.838;2023-04-06T13:29:55;17.42;;;8.32;;
54935;SDS011;40838;50.676;7.838;2023-04-06T13:32:21;14.52;;;8.65;;
54935;SDS011;40838;50.676;7.838;2023-04-06T13:34:50;20.83;;;8.80;;
54935;SDS011;40838;50.676;7.838;2023-04-06T13:37:18;14.95;;;8.20;;
54935;SDS011;40838;50.676;7.838;2023-04-06T13:39:45;15.50;;;8.60;;
54935;SDS011;40838;50.676;7.838;2023-04-06T13:42:12;17.10;;;8.75;;
54935;SDS011;40838;50.676;7.838;2023-04-06T13:44:39;14.90;;;8.05;;
54935;SDS011;40838;50.676;7.838;2023-04-06T13:47:05;15.25;;;7.57;;
54935;SDS011;40838;50.676;7.838;2023-04-06T13:49:32;14.32;;;8.18;;
54935;SDS011;40838;50.676;7.838;2023-04-06T13:52:01;17.30;;;8.18;;
54935;SDS011;40838;50.676;7.838;2023-04-06T13:54:28;18.63;;;9.23;;
54935;SDS011;40838;50.676;7.838;2023-04-06T13:56:55;17.10;;;8.93;;
54935;SDS011;40838;50.676;7.838;2023-04-06T13:59:23;20.35;;;9.48;;
54935;SDS011;40838;50.676;7.838;2023-04-06T14:01:49;24.05;;;9.93;;
54935;SDS011;40838;50.676;7.838;2023-04-06T14:04:16;15.43;;;8.43;;
54935;SDS011;40838;50.676;7.838;2023-04-06T14:06:44;14.73;;;8.48;;
54935;SDS011;40838;50.676;7.838;2023-04-06T14:09:12;18.95;;;8.75;;
54935;SDS011;40838;50.676;7.838;2023-04-06T14:11:40;13.38;;;7.63;;
54935;SDS011;40838;50.676;7.838;2023-04-06T14:14:07;17.63;;;8.15;;
54935;SDS011;40838;50.676;7.838;2023-04-06T14:16:34;17.63;;;8.60;;
54935;SDS011;40838;50.676;7.838;2023-04-06T14:19:01;14.90;;;8.38;;
54935;SDS011;40838;50.676;7.838;2023-04-06T14:21:28;23.92;;;9.23;;
54935;SDS011;40838;50.676;7.838;2023-04-06T14:23:56;15.15;;;7.18;;
54935;SDS011;40838;50.676;7.838;2023-04-06T14:26:25;25.25;;;9.32;;
54935;SDS011;40838;50.676;7.838;2023-04-06T14:28:52;39.10;;;10.20;;
54935;SDS011;40838;50.676;7.838;2023-04-06T14:31:19;24.13;;;12.20;;
54935;SDS011;40838;50.676;7.838;2023-04-06T14:33:46;17.10;;;9.35;;
54935;SDS011;40838;50.676;7.838;2023-04-06T14:36:14;14.55;;;8.10;;
54935;SDS011;40838;50.676;7.838;2023-04-06T14:38:40;16.15;;;8.60;;
54935;SDS011;40838;50.676;7.838;2023-04-06T14:41:10;12.70;;;7.53;;
54935;SDS011;40838;50.676;7.838;2023-04-06T14:43:42;15.93;;;7.82;;
54935;SDS011;40838;50.676;7.838;2023-04-06T14:46:09;11.85;;;7.32;;
54935;SDS011;40838;50.676;7.838;2023-04-06T14:48:36;13.82;;;7.18;;
54935;SDS011;40838;50.676;7.838;2023-04-06T14:51:03;12.82;;;7.57;;
54935;SDS011;40838;50.676;7.838;2023-04-06T14:53:30;14.10;;;7.68;;
54935;SDS011;40838;50.676;7.838;2023-04-06T14:55:56;12.75;;;7.13;;